createdAt,value
2023-06-19T00:02:18.748Z,8.63
2023-06-19T00:04:41.745Z,8.68
2023-06-19T00:07:05.215Z,9.40
2023-06-19T00:09:27.934Z,9.70
2023-06-19T00:11:50.519Z,9.07
2023-06-19T00:14:13.120Z,9.20
2023-06-19T00:16:35.927Z,9.38
2023-06-19T00:18:58.813Z,9.57
2023-06-19T00:21:21.501Z,9.40
2023-06-19T00:23:44.189Z,10.07
2023-06-19T00:26:08.079Z,9.10
2023-06-19T00:28:32.425Z,9.55
2023-06-19T00:30:57.044Z,9.10
2023-06-19T00:33:19.795Z,8.63
2023-06-19T00:35:42.807Z,8.73
2023-06-19T00:38:07.150Z,8.82
2023-06-19T00:40:34.343Z,9.05
2023-06-19T00:42:57.724Z,9.02
2023-06-19T00:45:20.464Z,8.77
2023-06-19T00:47:43.299Z,9.17
2023-06-19T00:50:06.504Z,8.98
2023-06-19T00:52:29.215Z,9.25
2023-06-19T00:54:52.141Z,9.30
2023-06-19T00:57:56.038Z,9.32
2023-06-19T01:00:19.425Z,8.60
2023-06-19T01:02:42.557Z,9.23
2023-06-19T01:05:05.934Z,9.05
2023-06-19T01:07:44.180Z,8.98
2023-06-19T01:10:09.535Z,9.20
2023-06-19T01:12:36.786Z,8.70
2023-06-19T01:15:04.101Z,9.25
2023-06-19T01:17:29.055Z,9.48
2023-06-19T01:19:51.776Z,9.05
2023-06-19T01:22:26.966Z,8.97
2023-06-19T01:24:49.586Z,9.27
2023-06-19T01:27:14.438Z,10.20
2023-06-19T01:29:37.182Z,9.90
2023-06-19T01:32:13.905Z,9.43
2023-06-19T01:34:40.959Z,10.40
2023-06-19T01:37:06.563Z,9.73
2023-06-19T01:39:29.800Z,9.80
2023-06-19T01:41:53.879Z,10.15
2023-06-19T01:44:16.718Z,9.90
2023-06-19T01:46:42.203Z,9.95
2023-06-19T01:49:09.874Z,9.53
2023-06-19T01:51:32.606Z,10.07
2023-06-19T01:53:57.049Z,10.23
2023-06-19T01:56:19.759Z,9.98
2023-06-19T01:58:42.455Z,10.07
2023-06-19T02:01:05.075Z,9.77
2023-06-19T02:03:27.912Z,9.85
2023-06-19T02:05:50.596Z,9.88
2023-06-19T02:08:13.284Z,10.27
2023-06-19T02:10:36.017Z,10.13
2023-06-19T02:12:59.309Z,9.80
2023-06-19T02:15:22.000Z,9.25
2023-06-19T02:17:44.747Z,10.02
2023-06-19T02:20:10.006Z,10.43
2023-06-19T02:22:33.406Z,9.75
2023-06-19T02:24:56.013Z,10.40
2023-06-19T02:27:18.783Z,10.18
2023-06-19T02:29:41.453Z,10.35
2023-06-19T02:32:04.269Z,10.55
2023-06-19T02:34:27.140Z,10.05
2023-06-19T02:36:49.807Z,9.70
2023-06-19T02:39:12.447Z,9.77
2023-06-19T02:41:35.294Z,10.25
2023-06-19T02:43:59.792Z,9.63
2023-06-19T02:46:22.608Z,10.10
2023-06-19T02:48:45.373Z,9.77
2023-06-19T02:51:08.030Z,10.52
2023-06-19T02:53:30.702Z,9.48
2023-06-19T02:55:53.475Z,10.23
2023-06-19T02:58:16.056Z,9.60
2023-06-19T03:00:38.751Z,9.13
2023-06-19T03:03:01.564Z,9.90
2023-06-19T03:05:24.277Z,10.25
2023-06-19T03:07:47.175Z,10.38
2023-06-19T03:10:10.287Z,10.30
2023-06-19T03:12:32.864Z,10.60
2023-06-19T03:14:55.588Z,10.90
2023-06-19T03:17:19.659Z,11.00
2023-06-19T03:19:42.400Z,11.30
2023-06-19T03:22:05.353Z,11.10
2023-06-19T03:24:28.905Z,10.80
2023-06-19T03:27:02.068Z,10.60
2023-06-19T03:29:24.747Z,10.07
2023-06-19T03:31:56.307Z,10.00
2023-06-19T03:34:23.603Z,10.65
2023-06-19T03:36:47.914Z,9.43
2023-06-19T03:39:10.577Z,10.02
2023-06-19T03:41:34.445Z,9.60
2023-06-19T03:43:57.159Z,9.80
2023-06-19T03:46:20.926Z,10.88
2023-06-19T03:48:43.618Z,9.70
2023-06-19T03:51:06.196Z,9.82
2023-06-19T03:53:29.128Z,10.85
2023-06-19T03:55:53.032Z,10.38
2023-06-19T03:58:16.956Z,11.00
2023-06-19T04:00:39.806Z,9.90
2023-06-19T04:03:02.826Z,10.25
2023-06-19T04:05:25.996Z,10.45
2023-06-19T04:07:48.700Z,10.30
2023-06-19T04:10:12.797Z,10.00
2023-06-19T04:12:35.740Z,9.93
2023-06-19T04:14:58.411Z,9.55
2023-06-19T04:17:21.213Z,9.65
2023-06-19T04:19:45.170Z,10.32
2023-06-19T04:22:08.338Z,10.15
2023-06-19T04:24:31.010Z,10.27
2023-06-19T04:26:53.912Z,10.13
2023-06-19T04:29:18.074Z,10.95
2023-06-19T04:31:42.848Z,9.93
2023-06-19T04:34:05.895Z,10.25
2023-06-19T04:36:28.960Z,9.83
2023-06-19T04:38:54.474Z,9.40
2023-06-19T04:41:17.323Z,9.43
2023-06-19T04:43:42.660Z,10.88
2023-06-19T04:46:05.448Z,9.88
2023-06-19T04:48:28.603Z,9.50
2023-06-19T04:50:51.486Z,9.68
2023-06-19T04:53:14.122Z,9.43
2023-06-19T04:55:36.864Z,9.70
2023-06-19T04:58:00.135Z,10.50
2023-06-19T05:00:25.129Z,9.93
2023-06-19T05:02:48.815Z,9.70
2023-06-19T05:05:12.250Z,10.65
2023-06-19T05:07:35.067Z,9.68
2023-06-19T05:09:57.840Z,10.35
2023-06-19T05:12:20.888Z,10.23
2023-06-19T05:14:43.888Z,9.23
2023-06-19T05:17:07.542Z,9.45
2023-06-19T05:19:30.330Z,9.02
2023-06-19T05:21:52.944Z,9.90
2023-06-19T05:24:15.957Z,8.97
2023-06-19T05:26:38.981Z,9.18
2023-06-19T05:29:01.720Z,9.40
2023-06-19T05:31:24.367Z,10.13
2023-06-19T05:33:47.066Z,8.88
2023-06-19T05:36:09.765Z,8.27
2023-06-19T05:38:32.636Z,9.25
2023-06-19T05:40:55.264Z,9.35
2023-06-19T05:43:19.741Z,8.93
2023-06-19T05:45:42.464Z,9.05
2023-06-19T05:48:05.655Z,8.80
2023-06-19T05:50:28.392Z,9.27
2023-06-19T05:52:51.155Z,9.13
2023-06-19T05:55:13.973Z,9.80
2023-06-19T05:57:36.744Z,9.27
2023-06-19T05:59:59.343Z,8.43
2023-06-19T06:02:22.146Z,8.82
2023-06-19T06:04:44.929Z,8.93
2023-06-19T06:07:07.823Z,9.32
2023-06-19T06:09:30.522Z,8.70
2023-06-19T06:11:53.245Z,8.33
2023-06-19T06:14:16.297Z,8.20
2023-06-19T06:16:39.166Z,7.95
2023-06-19T06:19:01.884Z,8.25
2023-06-19T06:21:24.525Z,8.15
2023-06-19T06:23:48.944Z,8.30
2023-06-19T06:26:12.178Z,7.90
2023-06-19T06:28:35.100Z,7.90
2023-06-19T06:30:57.923Z,9.55
2023-06-19T06:33:20.696Z,8.82
2023-06-19T06:35:43.437Z,7.93
2023-06-19T06:38:06.240Z,7.68
2023-06-19T06:40:29.020Z,7.82
2023-06-19T06:42:51.745Z,7.93
2023-06-19T06:45:14.858Z,7.95
2023-06-19T06:47:37.614Z,7.27
2023-06-19T06:50:00.361Z,7.20
2023-06-19T06:52:23.071Z,7.70
2023-06-19T06:54:46.240Z,7.60
2023-06-19T06:57:09.357Z,7.88
2023-06-19T06:59:32.078Z,7.60
2023-06-19T07:01:56.202Z,7.00
2023-06-19T07:04:19.657Z,7.05
2023-06-19T07:06:42.366Z,7.60
2023-06-19T07:09:05.303Z,6.78
2023-06-19T07:11:28.219Z,6.90
2023-06-19T07:13:51.142Z,7.13
2023-06-19T07:16:13.859Z,6.70
2023-06-19T07:18:39.803Z,6.53
2023-06-19T07:21:13.139Z,6.38
2023-06-19T07:23:37.910Z,6.53
2023-06-19T07:26:00.883Z,6.70
2023-06-19T07:28:23.562Z,6.50
2023-06-19T07:30:48.822Z,7.00
2023-06-19T07:33:11.632Z,7.18
2023-06-19T07:35:34.295Z,7.07
2023-06-19T07:37:57.023Z,7.07
2023-06-19T07:40:19.699Z,6.88
2023-06-19T07:42:44.505Z,6.20
2023-06-19T07:45:08.114Z,6.55
2023-06-19T07:47:30.943Z,6.87
2023-06-19T07:49:53.695Z,6.50
2023-06-19T07:52:16.458Z,6.30
2023-06-19T07:54:58.117Z,6.40
2023-06-19T07:57:21.649Z,6.28
2023-06-19T07:59:45.901Z,6.13
2023-06-19T08:02:08.663Z,6.53
2023-06-19T08:04:33.250Z,6.10
2023-06-19T08:06:57.421Z,6.80
2023-06-19T08:09:20.299Z,6.63
2023-06-19T08:11:43.001Z,5.93
2023-06-19T08:14:05.568Z,6.53
2023-06-19T08:16:28.855Z,6.40
2023-06-19T08:18:52.013Z,6.75
2023-06-19T08:21:14.791Z,7.10
2023-06-19T08:23:39.093Z,6.40
2023-06-19T08:26:01.838Z,6.28
2023-06-19T08:28:24.849Z,6.47
2023-06-19T08:30:47.576Z,6.43
2023-06-19T08:33:11.410Z,6.80
2023-06-19T08:35:34.268Z,6.37
2023-06-19T08:37:57.066Z,6.60
2023-06-19T08:40:20.716Z,6.40
2023-06-19T08:42:44.676Z,6.72
2023-06-19T08:45:08.446Z,7.00
2023-06-19T08:47:35.756Z,6.60
2023-06-19T08:50:02.363Z,6.13
2023-06-19T08:52:25.588Z,6.03
2023-06-19T08:54:48.754Z,6.18
2023-06-19T08:57:13.610Z,6.20
2023-06-19T08:59:36.600Z,6.23
2023-06-19T09:01:59.433Z,6.38
2023-06-19T09:04:28.130Z,5.85
2023-06-19T09:06:55.785Z,6.40
2023-06-19T09:09:22.135Z,6.05
2023-06-19T09:11:44.767Z,5.90
2023-06-19T09:14:07.524Z,6.15
2023-06-19T09:16:41.184Z,5.85
2023-06-19T09:19:03.922Z,6.18
2023-06-19T09:21:26.586Z,6.20
2023-06-19T09:23:51.021Z,6.33
2023-06-19T09:26:17.135Z,5.95
2023-06-19T09:28:45.390Z,6.40
2023-06-19T09:31:08.131Z,6.57
2023-06-19T09:33:33.047Z,6.03
2023-06-19T09:35:57.476Z,6.47
2023-06-19T09:38:25.574Z,6.03
2023-06-19T09:40:49.194Z,6.32
2023-06-19T09:43:12.768Z,6.38
2023-06-19T09:45:35.888Z,6.57
2023-06-19T09:47:58.599Z,6.20
2023-06-19T09:50:38.963Z,6.18
2023-06-19T09:53:04.412Z,6.50
2023-06-19T09:55:32.010Z,6.13
2023-06-19T09:57:54.878Z,6.60
2023-06-19T10:00:23.569Z,6.40
2023-06-19T10:03:14.178Z,6.30
2023-06-19T10:05:37.622Z,6.78
2023-06-19T10:08:02.114Z,6.50
2023-06-19T10:10:26.846Z,6.28
2023-06-19T10:12:49.846Z,6.30
2023-06-19T10:15:14.057Z,6.05
2023-06-19T10:17:36.699Z,6.07
2023-06-19T10:19:59.431Z,6.40
2023-06-19T10:22:25.125Z,6.57
2023-06-19T10:24:51.763Z,6.10
2023-06-19T10:27:22.824Z,6.68
2023-06-19T10:29:53.282Z,5.93
2023-06-19T10:32:22.341Z,6.07
2023-06-19T10:34:50.139Z,6.53
2023-06-19T10:37:13.625Z,6.07
2023-06-19T10:39:36.327Z,6.03
2023-06-19T10:41:59.888Z,6.38
2023-06-19T10:44:26.020Z,6.22
2023-06-19T10:46:48.844Z,6.00
2023-06-19T10:49:12.580Z,6.07
2023-06-19T10:51:36.622Z,6.20
2023-06-19T10:53:59.497Z,6.40
2023-06-19T10:56:23.804Z,6.32
2023-06-19T10:58:46.532Z,6.05
2023-06-19T11:01:09.930Z,6.47
2023-06-19T11:03:33.257Z,6.35
2023-06-19T11:05:56.248Z,7.20
2023-06-19T11:08:20.554Z,6.05
2023-06-19T11:10:43.678Z,6.47
2023-06-19T11:13:06.324Z,6.23
2023-06-19T11:15:33.140Z,6.43
2023-06-19T11:17:55.928Z,6.53
2023-06-19T11:20:18.631Z,6.03
2023-06-19T11:22:42.702Z,6.32
2023-06-19T11:25:06.357Z,6.20
2023-06-19T11:27:32.201Z,6.32
2023-06-19T11:30:01.516Z,6.10
2023-06-19T11:32:26.169Z,6.50
2023-06-19T11:34:49.121Z,6.47
2023-06-19T11:37:16.341Z,6.10
2023-06-19T11:40:19.966Z,6.40
2023-06-19T11:42:50.038Z,6.28
2023-06-19T11:45:12.741Z,6.10
2023-06-19T11:47:35.777Z,6.30
2023-06-19T11:49:59.150Z,6.57
2023-06-19T11:52:21.939Z,6.88
2023-06-19T11:54:44.737Z,6.63
2023-06-19T11:57:07.649Z,6.38
2023-06-19T11:59:31.401Z,6.72
2023-06-19T12:01:54.316Z,6.20
2023-06-19T12:04:17.742Z,7.10
2023-06-19T12:06:40.606Z,7.00
2023-06-19T12:09:05.880Z,6.90
2023-06-19T12:11:28.780Z,6.63
2023-06-19T12:13:51.806Z,7.10
2023-06-19T12:16:15.383Z,6.13
2023-06-19T12:18:38.188Z,6.47
2023-06-19T12:21:00.913Z,6.40
2023-06-19T12:23:23.641Z,6.70
2023-06-19T12:25:46.335Z,7.37
2023-06-19T12:28:09.611Z,6.60
2023-06-19T12:30:32.669Z,6.43
2023-06-19T12:32:55.387Z,6.90
2023-06-19T12:35:19.436Z,6.63
2023-06-19T12:37:42.256Z,6.47
2023-06-19T12:40:12.029Z,6.75
2023-06-19T12:42:34.693Z,6.60
2023-06-19T12:44:57.370Z,6.72
2023-06-19T12:47:20.156Z,6.60
2023-06-19T12:49:42.851Z,6.47
2023-06-19T12:52:06.116Z,6.60
2023-06-19T12:54:29.317Z,6.70
2023-06-19T12:56:52.126Z,6.53
2023-06-19T12:59:15.022Z,6.90
2023-06-19T13:01:37.656Z,6.60
2023-06-19T13:04:00.540Z,6.70
2023-06-19T13:06:23.669Z,6.93
2023-06-19T13:08:46.832Z,6.80
2023-06-19T13:11:09.599Z,6.65
2023-06-19T13:13:32.312Z,6.97
2023-06-19T13:15:55.020Z,6.63
2023-06-19T13:18:19.562Z,6.80
2023-06-19T13:20:42.425Z,6.82
2023-06-19T13:23:05.218Z,7.07
2023-06-19T13:25:27.992Z,6.40
2023-06-19T13:27:50.984Z,7.38
2023-06-19T13:30:14.731Z,6.95
2023-06-19T13:32:39.000Z,7.60
2023-06-19T13:35:01.810Z,7.32
2023-06-19T13:37:24.736Z,7.30
2023-06-19T13:39:47.352Z,7.20
2023-06-19T13:42:10.328Z,7.43
2023-06-19T13:44:33.048Z,7.10
2023-06-19T13:46:55.864Z,7.57
2023-06-19T13:49:18.469Z,7.13
2023-06-19T13:51:41.309Z,7.00
2023-06-19T13:54:06.937Z,7.15
2023-06-19T13:56:29.679Z,7.53
2023-06-19T13:58:52.417Z,7.68
2023-06-19T14:01:15.195Z,7.43
2023-06-19T14:03:40.657Z,7.50
2023-06-19T14:06:03.708Z,7.50
2023-06-19T14:08:26.473Z,8.02
2023-06-19T14:10:49.182Z,8.00
2023-06-19T14:13:14.567Z,8.00
2023-06-19T14:15:37.605Z,7.57
2023-06-19T14:18:00.282Z,7.70
2023-06-19T14:20:23.370Z,7.60
2023-06-19T14:22:46.204Z,9.38
2023-06-19T14:25:09.462Z,7.50
2023-06-19T14:27:32.152Z,7.82
2023-06-19T14:29:55.959Z,8.00
2023-06-19T14:32:18.580Z,7.45
2023-06-19T14:34:41.365Z,8.00
2023-06-19T14:37:04.251Z,7.67
2023-06-19T14:39:26.884Z,7.45
2023-06-19T14:41:49.598Z,7.78
2023-06-19T14:44:12.240Z,8.00
2023-06-19T14:46:40.240Z,7.75
2023-06-19T14:49:03.246Z,7.47
2023-06-19T14:51:26.810Z,7.43
2023-06-19T14:53:49.522Z,7.70
2023-06-19T14:56:12.287Z,7.55
2023-06-19T14:58:34.980Z,7.88
2023-06-19T15:00:59.158Z,7.87
2023-06-19T15:03:22.061Z,8.05
2023-06-19T15:05:44.745Z,7.90
2023-06-19T15:08:08.947Z,8.10
2023-06-19T15:10:31.703Z,7.78
2023-06-19T15:12:54.697Z,7.93
2023-06-19T15:15:17.426Z,7.72
2023-06-19T15:17:40.073Z,7.97
2023-06-19T15:20:02.804Z,7.97
2023-06-19T15:22:28.464Z,7.68
2023-06-19T15:24:51.108Z,7.70
2023-06-19T15:27:13.794Z,7.45
2023-06-19T15:29:36.910Z,8.18
2023-06-19T15:31:59.592Z,7.78
2023-06-19T15:34:22.297Z,7.43
2023-06-19T15:36:44.955Z,7.67
2023-06-19T15:39:07.663Z,7.55
2023-06-19T15:41:31.042Z,7.60
2023-06-19T15:43:53.662Z,7.60
2023-06-19T15:46:16.690Z,8.05
2023-06-19T15:48:39.448Z,7.83
2023-06-19T15:51:02.786Z,7.72
2023-06-19T15:53:25.470Z,7.50
2023-06-19T15:55:48.178Z,7.50
2023-06-19T15:58:10.799Z,7.60
2023-06-19T16:00:33.527Z,7.30
2023-06-19T16:02:56.314Z,7.53
2023-06-19T16:05:19.130Z,7.43
2023-06-19T16:07:42.381Z,7.57
2023-06-19T16:10:05.596Z,7.68
2023-06-19T16:12:28.219Z,7.50
2023-06-19T16:14:50.909Z,7.65
2023-06-19T16:17:13.444Z,7.72
2023-06-19T16:19:36.692Z,7.53
2023-06-19T16:22:00.598Z,7.82
2023-06-19T16:24:23.689Z,7.57
2023-06-19T16:26:46.734Z,7.60
2023-06-19T16:29:09.652Z,7.57
2023-06-19T16:31:32.395Z,7.35
2023-06-19T16:33:55.394Z,8.35
2023-06-19T16:36:18.483Z,7.67
2023-06-19T16:38:41.625Z,7.80
2023-06-19T16:41:04.409Z,8.32
2023-06-19T16:43:27.063Z,7.57
2023-06-19T16:45:49.618Z,7.57
2023-06-19T16:48:12.441Z,7.90
2023-06-19T16:50:36.461Z,7.47
2023-06-19T16:53:00.098Z,7.68
2023-06-19T16:55:23.899Z,7.93
2023-06-19T16:57:47.941Z,7.97
2023-06-19T17:00:11.716Z,7.80
2023-06-19T17:02:34.790Z,8.00
2023-06-19T17:04:57.458Z,8.13
2023-06-19T17:07:22.866Z,8.07
2023-06-19T17:09:47.318Z,7.28
2023-06-19T17:12:10.900Z,7.63
2023-06-19T17:14:33.497Z,7.43
2023-06-19T17:16:56.436Z,7.70
2023-06-19T17:19:19.228Z,8.27
2023-06-19T17:21:42.188Z,7.80
2023-06-19T17:24:05.209Z,8.53
2023-06-19T17:26:28.123Z,8.13
2023-06-19T17:28:50.791Z,8.20
2023-06-19T17:31:13.435Z,7.82
2023-06-19T17:33:36.095Z,8.30
2023-06-19T17:35:59.912Z,7.63
2023-06-19T17:38:22.656Z,8.00
2023-06-19T17:40:45.360Z,8.32
2023-06-19T17:43:08.109Z,7.80
2023-06-19T17:45:30.774Z,7.95
2023-06-19T17:47:53.586Z,7.37
2023-06-19T17:50:16.301Z,7.85
2023-06-19T17:52:40.153Z,7.82
2023-06-19T17:55:03.068Z,8.00
2023-06-19T17:57:27.134Z,8.00
2023-06-19T17:59:49.907Z,8.00
2023-06-19T18:02:12.504Z,8.00
2023-06-19T18:04:35.357Z,8.00
2023-06-19T18:06:57.886Z,8.98
2023-06-19T18:09:20.609Z,8.27
2023-06-19T18:11:43.325Z,8.40
2023-06-19T18:14:06.007Z,8.10
2023-06-19T18:16:28.727Z,8.20
2023-06-19T18:18:51.423Z,8.27
2023-06-19T18:21:14.098Z,8.38
2023-06-19T18:23:37.242Z,8.53
2023-06-19T18:25:59.813Z,8.95
2023-06-19T18:28:22.564Z,8.73
2023-06-19T18:30:45.215Z,9.00
2023-06-19T18:33:08.108Z,9.13
2023-06-19T18:35:32.463Z,8.17
2023-06-19T18:37:55.413Z,8.40
2023-06-19T18:40:18.119Z,8.70
2023-06-19T18:42:42.169Z,8.40
2023-06-19T18:45:05.773Z,8.55
2023-06-19T18:47:28.646Z,8.40
2023-06-19T18:49:51.625Z,8.13
2023-06-19T18:52:14.402Z,8.82
2023-06-19T18:54:37.047Z,8.98
2023-06-19T18:56:59.663Z,9.02
2023-06-19T18:59:22.632Z,9.13
2023-06-19T19:01:45.377Z,8.88
2023-06-19T19:04:08.051Z,9.48
2023-06-19T19:06:30.790Z,8.82
2023-06-19T19:08:57.456Z,8.80
2023-06-19T19:11:20.251Z,9.47
2023-06-19T19:13:43.781Z,9.15
2023-06-19T19:16:06.512Z,9.00
2023-06-19T19:18:29.395Z,8.80
2023-06-19T19:20:52.067Z,8.50
2023-06-19T19:23:14.754Z,8.30
2023-06-19T19:25:39.153Z,8.80
2023-06-19T19:28:02.022Z,9.30
2023-06-19T19:30:25.577Z,9.05
2023-06-19T19:32:48.758Z,9.15
2023-06-19T19:35:11.473Z,9.10
2023-06-19T19:37:34.152Z,8.45
2023-06-19T19:39:57.946Z,9.13
2023-06-19T19:42:21.056Z,9.98
2023-06-19T19:44:44.104Z,9.75
2023-06-19T19:47:07.218Z,9.07
2023-06-19T19:49:29.996Z,9.30
2023-06-19T19:51:52.604Z,9.50
2023-06-19T19:54:15.577Z,9.02
2023-06-19T19:56:38.585Z,9.90
2023-06-19T19:59:01.251Z,9.50
2023-06-19T20:01:24.001Z,9.38
2023-06-19T20:03:47.046Z,9.70
2023-06-19T20:06:11.152Z,9.45
2023-06-19T20:08:34.380Z,10.02
2023-06-19T20:10:57.033Z,9.90
2023-06-19T20:13:19.663Z,9.70
2023-06-19T20:15:42.371Z,9.65
2023-06-19T20:18:05.400Z,9.73
2023-06-19T20:20:28.426Z,9.93
2023-06-19T20:22:51.350Z,9.37
2023-06-19T20:25:14.067Z,9.50
2023-06-19T20:27:36.704Z,9.82
2023-06-19T20:29:59.362Z,10.18
2023-06-19T20:32:22.101Z,10.23
2023-06-19T20:34:44.718Z,10.17
2023-06-19T20:37:07.602Z,9.48
2023-06-19T20:39:30.193Z,9.93
2023-06-19T20:41:52.841Z,9.93
2023-06-19T20:44:18.862Z,10.32
2023-06-19T20:46:41.579Z,9.70
2023-06-19T20:49:04.353Z,9.93
2023-06-19T20:51:27.000Z,9.90
2023-06-19T20:53:49.642Z,9.90
2023-06-19T20:56:12.320Z,10.02
2023-06-19T20:58:34.970Z,9.63
2023-06-19T21:00:57.633Z,9.77
2023-06-19T21:03:24.535Z,9.85
2023-06-19T21:05:50.251Z,10.10
2023-06-19T21:08:12.933Z,10.43
2023-06-19T21:10:35.671Z,9.87
2023-06-19T21:13:07.180Z,10.52
2023-06-19T21:15:40.657Z,10.02
2023-06-19T21:18:03.555Z,10.43
2023-06-19T21:20:27.292Z,10.30
2023-06-19T21:22:50.253Z,10.17
2023-06-19T21:25:12.976Z,11.00
2023-06-19T21:27:35.700Z,10.55
2023-06-19T21:29:58.414Z,10.00
2023-06-19T21:32:21.641Z,10.48
2023-06-19T21:34:44.374Z,10.43
2023-06-19T21:37:07.169Z,10.40
2023-06-19T21:39:29.780Z,10.90
2023-06-19T21:41:52.521Z,10.68
2023-06-19T21:44:15.227Z,10.75
2023-06-19T21:46:37.994Z,9.90
2023-06-19T21:49:01.739Z,10.27
2023-06-19T21:51:24.412Z,9.98
2023-06-19T21:53:47.139Z,10.75
2023-06-19T21:56:10.049Z,11.20
2023-06-19T21:58:32.682Z,10.57
2023-06-19T22:00:55.292Z,10.50
2023-06-19T22:03:18.076Z,10.90
2023-06-19T22:05:40.795Z,10.48
2023-06-19T22:08:03.493Z,10.45
2023-06-19T22:10:29.349Z,10.47
2023-06-19T22:12:52.260Z,10.88
2023-06-19T22:15:15.322Z,11.50
2023-06-19T22:17:38.431Z,11.00
2023-06-19T22:20:42.543Z,10.98
2023-06-19T22:23:06.130Z,11.17
2023-06-19T22:25:28.827Z,10.85
2023-06-19T22:27:55.392Z,10.57
2023-06-19T22:30:18.598Z,11.13
2023-06-19T22:32:41.959Z,10.93
2023-06-19T22:35:05.349Z,10.90
2023-06-19T22:37:28.519Z,11.27
2023-06-19T22:39:51.191Z,11.32
2023-06-19T22:42:13.901Z,11.05
2023-06-19T22:44:36.684Z,11.05
2023-06-19T22:46:59.390Z,11.60
2023-06-19T22:49:22.070Z,11.65
2023-06-19T22:51:44.872Z,11.73
2023-06-19T22:54:08.019Z,11.90
2023-06-19T22:56:30.946Z,11.77
2023-06-19T22:58:53.526Z,11.67
2023-06-19T23:01:16.293Z,11.50
2023-06-19T23:03:41.426Z,11.93
2023-06-19T23:06:05.093Z,11.68
2023-06-19T23:08:27.880Z,12.32
2023-06-19T23:10:50.555Z,11.33
2023-06-19T23:13:13.428Z,12.13
2023-06-19T23:15:37.225Z,11.82
2023-06-19T23:18:00.391Z,11.15
2023-06-19T23:20:23.095Z,11.40
2023-06-19T23:22:48.756Z,11.17
2023-06-19T23:25:12.111Z,11.60
2023-06-19T23:27:35.666Z,12.25
2023-06-19T23:29:58.362Z,11.70
2023-06-19T23:32:23.134Z,12.02
2023-06-19T23:34:45.982Z,11.33
2023-06-19T23:37:08.612Z,11.50
2023-06-19T23:39:31.318Z,12.05
2023-06-19T23:41:54.772Z,11.80
2023-06-19T23:44:17.665Z,11.52
2023-06-19T23:46:40.317Z,11.17
2023-06-19T23:49:03.061Z,11.45
2023-06-19T23:51:25.787Z,11.77
2023-06-19T23:53:48.619Z,11.63
2023-06-19T23:56:11.177Z,11.80
2023-06-19T23:58:33.947Z,11.33
